Terminal Aerodrome Forecast
Issued by NWS

Home | Current Version | Previous Version | Text Only | Print | Product List | Glossary On
Versions: 1 2 3 4 5 6 7 8 9 10 11 12 13 14 15 16 17 18 19 20 21 22
000
FTUS46 KSEW 192337
TAFCLM
TAF
KCLM 192337Z 2000/2024 VRB03KT P6SM SCT020 BKN050
      TEMPO 2000/2004 6SM -SHRA BKN020 OVC050
     FM200400 VRB03KT P6SM VCSH SCT025 BKN060
     FM201500 30005KT P6SM VCSH SCT030 BKN070=

USA.gov is the U.S. government's official web portal to all federal, state and local government web resources and services.